sensor_id;sensor_type;location;lat;lon;timestamp;P1;durP1;ratioP1;P2;durP2;ratioP2
8536;SDS011;4306;50.210;10.628;2023-01-29T00:01:46;6.23;;;3.87;;
8536;SDS011;4306;50.210;10.628;2023-01-29T00:04:13;4.70;;;3.27;;
8536;SDS011;4306;50.210;10.628;2023-01-29T00:06:41;4.30;;;3.47;;
8536;SDS011;4306;50.210;10.628;2023-01-29T00:09:08;5.27;;;4.13;;
8536;SDS011;4306;50.210;10.628;2023-01-29T00:11:35;6.27;;;4.00;;
8536;SDS011;4306;50.210;10.628;2023-01-29T00:14:02;5.67;;;3.90;;
8536;SDS011;4306;50.210;10.628;2023-01-29T00:16:29;5.70;;;3.70;;
8536;SDS011;4306;50.210;10.628;2023-01-29T00:18:56;15.93;;;7.30;;
8536;SDS011;4306;50.210;10.628;2023-01-29T00:21:23;10.73;;;5.63;;
8536;SDS011;4306;50.210;10.628;2023-01-29T00:23:52;7.97;;;5.27;;
8536;SDS011;4306;50.210;10.628;2023-01-29T00:26:20;12.17;;;6.33;;
8536;SDS011;4306;50.210;10.628;2023-01-29T00:28:47;8.23;;;4.60;;
8536;SDS011;4306;50.210;10.628;2023-01-29T00:31:15;6.33;;;4.10;;
8536;SDS011;4306;50.210;10.628;2023-01-29T00:33:44;6.43;;;3.97;;
8536;SDS011;4306;50.210;10.628;2023-01-29T00:36:11;7.20;;;4.83;;
8536;SDS011;4306;50.210;10.628;2023-01-29T00:38:39;8.30;;;5.77;;
8536;SDS011;4306;50.210;10.628;2023-01-29T00:41:08;6.43;;;4.20;;
8536;SDS011;4306;50.210;10.628;2023-01-29T00:43:54;5.67;;;4.40;;
8536;SDS011;4306;50.210;10.628;2023-01-29T00:46:34;4.20;;;3.30;;
8536;SDS011;4306;50.210;10.628;2023-01-29T00:49:02;7.57;;;4.57;;
8536;SDS011;4306;50.210;10.628;2023-01-29T00:51:29;5.23;;;4.10;;
8536;SDS011;4306;50.210;10.628;2023-01-29T00:53:56;4.90;;;3.67;;
8536;SDS011;4306;50.210;10.628;2023-01-29T00:56:25;6.60;;;4.33;;
8536;SDS011;4306;50.210;10.628;2023-01-29T00:58:52;6.20;;;4.50;;
8536;SDS011;4306;50.210;10.628;2023-01-29T01:01:19;9.37;;;4.43;;
8536;SDS011;4306;50.210;10.628;2023-01-29T01:04:07;6.17;;;4.10;;
8536;SDS011;4306;50.210;10.628;2023-01-29T01:06:35;5.47;;;3.70;;
8536;SDS011;4306;50.210;10.628;2023-01-29T01:09:02;5.50;;;4.03;;
8536;SDS011;4306;50.210;10.628;2023-01-29T01:11:48;7.30;;;4.10;;
8536;SDS011;4306;50.210;10.628;2023-01-29T01:14:15;7.03;;;4.23;;
8536;SDS011;4306;50.210;10.628;2023-01-29T01:16:43;6.23;;;3.67;;
8536;SDS011;4306;50.210;10.628;2023-01-29T01:19:10;4.60;;;3.63;;
8536;SDS011;4306;50.210;10.628;2023-01-29T01:21:37;7.13;;;3.93;;
8536;SDS011;4306;50.210;10.628;2023-01-29T01:24:04;6.67;;;3.97;;
8536;SDS011;4306;50.210;10.628;2023-01-29T01:26:31;6.37;;;3.67;;
8536;SDS011;4306;50.210;10.628;2023-01-29T01:29:00;5.90;;;3.70;;
8536;SDS011;4306;50.210;10.628;2023-01-29T01:31:27;5.97;;;4.30;;
8536;SDS011;4306;50.210;10.628;2023-01-29T01:33:54;6.07;;;3.67;;
8536;SDS011;4306;50.210;10.628;2023-01-29T01:36:20;7.13;;;4.33;;
8536;SDS011;4306;50.210;10.628;2023-01-29T01:38:47;5.30;;;4.00;;
8536;SDS011;4306;50.210;10.628;2023-01-29T01:41:16;5.60;;;4.10;;
8536;SDS011;4306;50.210;10.628;2023-01-29T01:43:46;5.57;;;4.07;;
8536;SDS011;4306;50.210;10.628;2023-01-29T01:46:19;5.47;;;3.93;;
8536;SDS011;4306;50.210;10.628;2023-01-29T01:48:48;6.93;;;3.60;;
8536;SDS011;4306;50.210;10.628;2023-01-29T01:51:18;5.57;;;3.63;;
8536;SDS011;4306;50.210;10.628;2023-01-29T01:53:48;6.00;;;3.97;;
8536;SDS011;4306;50.210;10.628;2023-01-29T01:56:19;5.90;;;4.03;;
8536;SDS011;4306;50.210;10.628;2023-01-29T01:58:50;5.73;;;3.33;;
8536;SDS011;4306;50.210;10.628;2023-01-29T02:01:21;6.30;;;3.90;;
8536;SDS011;4306;50.210;10.628;2023-01-29T02:03:53;6.53;;;4.23;;
8536;SDS011;4306;50.210;10.628;2023-01-29T02:06:41;6.37;;;4.23;;
8536;SDS011;4306;50.210;10.628;2023-01-29T02:09:28;7.13;;;3.90;;
8536;SDS011;4306;50.210;10.628;2023-01-29T02:12:01;5.63;;;3.80;;
8536;SDS011;4306;50.210;10.628;2023-01-29T02:14:29;7.27;;;4.33;;
8536;SDS011;4306;50.210;10.628;2023-01-29T02:17:00;6.30;;;4.30;;
8536;SDS011;4306;50.210;10.628;2023-01-29T02:19:31;14.07;;;5.63;;
8536;SDS011;4306;50.210;10.628;2023-01-29T02:22:18;8.20;;;4.53;;
8536;SDS011;4306;50.210;10.628;2023-01-29T02:28:13;8.20;;;4.33;;
8536;SDS011;4306;50.210;10.628;2023-01-29T02:30:49;6.37;;;4.13;;
8536;SDS011;4306;50.210;10.628;2023-01-29T02:33:24;7.30;;;3.93;;
8536;SDS011;4306;50.210;10.628;2023-01-29T02:35:58;6.43;;;3.80;;
8536;SDS011;4306;50.210;10.628;2023-01-29T02:38:37;6.67;;;4.30;;
8536;SDS011;4306;50.210;10.628;2023-01-29T02:41:12;13.67;;;6.50;;
8536;SDS011;4306;50.210;10.628;2023-01-29T02:43:44;11.10;;;5.30;;
8536;SDS011;4306;50.210;10.628;2023-01-29T02:46:15;9.00;;;5.17;;
8536;SDS011;4306;50.210;10.628;2023-01-29T02:48:48;8.67;;;4.70;;
8536;SDS011;4306;50.210;10.628;2023-01-29T02:51:23;17.93;;;6.77;;
8536;SDS011;4306;50.210;10.628;2023-01-29T02:53:56;10.10;;;5.87;;
8536;SDS011;4306;50.210;10.628;2023-01-29T02:56:29;6.03;;;4.27;;
8536;SDS011;4306;50.210;10.628;2023-01-29T02:59:05;7.20;;;3.70;;
8536;SDS011;4306;50.210;10.628;2023-01-29T03:01:37;5.77;;;3.60;;
8536;SDS011;4306;50.210;10.628;2023-01-29T03:04:09;7.30;;;4.03;;
8536;SDS011;4306;50.210;10.628;2023-01-29T03:06:40;7.87;;;4.47;;
8536;SDS011;4306;50.210;10.628;2023-01-29T03:09:11;7.33;;;4.40;;
8536;SDS011;4306;50.210;10.628;2023-01-29T03:11:41;7.37;;;4.60;;
8536;SDS011;4306;50.210;10.628;2023-01-29T03:14:22;6.30;;;4.07;;
8536;SDS011;4306;50.210;10.628;2023-01-29T03:17:14;6.47;;;4.47;;
8536;SDS011;4306;50.210;10.628;2023-01-29T03:19:42;5.57;;;3.77;;
8536;SDS011;4306;50.210;10.628;2023-01-29T03:22:12;6.53;;;4.20;;
8536;SDS011;4306;50.210;10.628;2023-01-29T03:24:46;6.57;;;4.10;;
8536;SDS011;4306;50.210;10.628;2023-01-29T03:27:33;5.73;;;3.97;;
8536;SDS011;4306;50.210;10.628;2023-01-29T03:30:24;5.33;;;3.87;;
8536;SDS011;4306;50.210;10.628;2023-01-29T03:33:11;6.03;;;4.23;;
8536;SDS011;4306;50.210;10.628;2023-01-29T03:35:42;7.87;;;4.23;;
8536;SDS011;4306;50.210;10.628;2023-01-29T03:38:13;9.40;;;4.27;;
8536;SDS011;4306;50.210;10.628;2023-01-29T03:40:43;8.33;;;4.23;;
8536;SDS011;4306;50.210;10.628;2023-01-29T03:43:17;8.00;;;4.30;;
8536;SDS011;4306;50.210;10.628;2023-01-29T03:45:54;6.07;;;4.20;;
8536;SDS011;4306;50.210;10.628;2023-01-29T03:48:27;6.90;;;4.30;;
8536;SDS011;4306;50.210;10.628;2023-01-29T03:51:00;7.30;;;4.10;;
8536;SDS011;4306;50.210;10.628;2023-01-29T03:53:45;7.87;;;4.50;;
8536;SDS011;4306;50.210;10.628;2023-01-29T03:56:19;6.97;;;4.33;;
8536;SDS011;4306;50.210;10.628;2023-01-29T03:58:57;6.87;;;3.97;;
8536;SDS011;4306;50.210;10.628;2023-01-29T04:01:30;6.17;;;4.57;;
8536;SDS011;4306;50.210;10.628;2023-01-29T04:04:04;6.03;;;3.97;;
8536;SDS011;4306;50.210;10.628;2023-01-29T04:06:38;8.27;;;5.07;;
8536;SDS011;4306;50.210;10.628;2023-01-29T04:09:10;9.37;;;5.80;;
8536;SDS011;4306;50.210;10.628;2023-01-29T04:11:40;12.57;;;6.07;;
8536;SDS011;4306;50.210;10.628;2023-01-29T04:14:12;10.23;;;5.60;;
8536;SDS011;4306;50.210;10.628;2023-01-29T04:16:43;8.30;;;5.43;;
8536;SDS011;4306;50.210;10.628;2023-01-29T04:19:15;7.90;;;4.60;;
8536;SDS011;4306;50.210;10.628;2023-01-29T04:21:42;7.73;;;4.77;;
8536;SDS011;4306;50.210;10.628;2023-01-29T04:24:11;10.83;;;5.77;;
8536;SDS011;4306;50.210;10.628;2023-01-29T04:26:43;9.23;;;5.07;;
8536;SDS011;4306;50.210;10.628;2023-01-29T04:29:24;9.20;;;5.47;;
8536;SDS011;4306;50.210;10.628;2023-01-29T04:32:05;8.13;;;5.37;;
8536;SDS011;4306;50.210;10.628;2023-01-29T04:34:44;8.30;;;5.13;;
8536;SDS011;4306;50.210;10.628;2023-01-29T04:37:19;9.20;;;6.27;;
8536;SDS011;4306;50.210;10.628;2023-01-29T04:39:55;13.20;;;5.77;;
8536;SDS011;4306;50.210;10.628;2023-01-29T04:42:29;10.00;;;6.03;;
8536;SDS011;4306;50.210;10.628;2023-01-29T04:45:03;9.23;;;5.93;;
8536;SDS011;4306;50.210;10.628;2023-01-29T04:47:41;9.40;;;5.73;;
8536;SDS011;4306;50.210;10.628;2023-01-29T04:50:16;8.37;;;5.40;;
8536;SDS011;4306;50.210;10.628;2023-01-29T04:52:50;9.27;;;6.00;;
8536;SDS011;4306;50.210;10.628;2023-01-29T04:55:24;8.37;;;5.40;;
8536;SDS011;4306;50.210;10.628;2023-01-29T04:58:00;8.70;;;4.90;;
8536;SDS011;4306;50.210;10.628;2023-01-29T05:00:32;10.53;;;6.07;;
8536;SDS011;4306;50.210;10.628;2023-01-29T05:03:03;10.17;;;6.10;;
8536;SDS011;4306;50.210;10.628;2023-01-29T05:05:33;9.73;;;5.60;;
8536;SDS011;4306;50.210;10.628;2023-01-29T05:08:01;10.03;;;6.20;;
8536;SDS011;4306;50.210;10.628;2023-01-29T05:10:29;7.77;;;5.10;;
8536;SDS011;4306;50.210;10.628;2023-01-29T05:12:57;9.10;;;5.40;;
8536;SDS011;4306;50.210;10.628;2023-01-29T05:15:27;9.80;;;5.87;;
8536;SDS011;4306;50.210;10.628;2023-01-29T05:17:57;8.27;;;5.43;;
8536;SDS011;4306;50.210;10.628;2023-01-29T05:20:28;9.27;;;5.10;;
8536;SDS011;4306;50.210;10.628;2023-01-29T05:22:57;9.03;;;5.63;;
8536;SDS011;4306;50.210;10.628;2023-01-29T05:25:25;7.60;;;5.30;;
8536;SDS011;4306;50.210;10.628;2023-01-29T05:27:54;8.60;;;5.50;;
8536;SDS011;4306;50.210;10.628;2023-01-29T05:30:29;8.87;;;5.03;;
8536;SDS011;4306;50.210;10.628;2023-01-29T05:32:56;8.03;;;5.13;;
8536;SDS011;4306;50.210;10.628;2023-01-29T05:35:23;8.47;;;5.37;;
8536;SDS011;4306;50.210;10.628;2023-01-29T05:37:53;8.90;;;5.40;;
8536;SDS011;4306;50.210;10.628;2023-01-29T05:40:20;10.50;;;5.73;;
8536;SDS011;4306;50.210;10.628;2023-01-29T05:42:47;10.57;;;5.83;;
8536;SDS011;4306;50.210;10.628;2023-01-29T05:45:15;10.43;;;6.00;;
8536;SDS011;4306;50.210;10.628;2023-01-29T05:47:42;9.43;;;5.83;;
8536;SDS011;4306;50.210;10.628;2023-01-29T05:50:10;8.80;;;5.37;;
8536;SDS011;4306;50.210;10.628;2023-01-29T05:52:37;10.23;;;6.03;;
8536;SDS011;4306;50.210;10.628;2023-01-29T05:55:06;10.53;;;5.47;;
8536;SDS011;4306;50.210;10.628;2023-01-29T05:57:34;7.80;;;4.73;;
8536;SDS011;4306;50.210;10.628;2023-01-29T06:00:01;9.03;;;4.80;;
8536;SDS011;4306;50.210;10.628;2023-01-29T06:02:29;7.97;;;5.27;;
8536;SDS011;4306;50.210;10.628;2023-01-29T06:04:56;7.50;;;5.00;;
8536;SDS011;4306;50.210;10.628;2023-01-29T06:07:23;9.50;;;5.23;;
8536;SDS011;4306;50.210;10.628;2023-01-29T06:09:50;7.30;;;4.73;;
8536;SDS011;4306;50.210;10.628;2023-01-29T06:12:18;9.47;;;5.63;;
8536;SDS011;4306;50.210;10.628;2023-01-29T06:14:45;9.80;;;5.50;;
8536;SDS011;4306;50.210;10.628;2023-01-29T06:17:12;10.90;;;5.97;;
8536;SDS011;4306;50.210;10.628;2023-01-29T06:19:39;9.90;;;5.57;;
8536;SDS011;4306;50.210;10.628;2023-01-29T06:22:05;12.13;;;5.93;;
8536;SDS011;4306;50.210;10.628;2023-01-29T06:24:32;9.63;;;5.80;;
8536;SDS011;4306;50.210;10.628;2023-01-29T06:26:59;9.57;;;5.80;;
8536;SDS011;4306;50.210;10.628;2023-01-29T06:29:28;9.73;;;5.53;;
8536;SDS011;4306;50.210;10.628;2023-01-29T06:31:54;8.67;;;5.43;;
8536;SDS011;4306;50.210;10.628;2023-01-29T06:34:21;9.97;;;5.70;;
8536;SDS011;4306;50.210;10.628;2023-01-29T06:36:48;8.50;;;5.03;;
8536;SDS011;4306;50.210;10.628;2023-01-29T06:39:15;10.10;;;6.03;;
8536;SDS011;4306;50.210;10.628;2023-01-29T06:41:42;15.87;;;7.33;;
8536;SDS011;4306;50.210;10.628;2023-01-29T06:44:10;12.53;;;6.03;;
8536;SDS011;4306;50.210;10.628;2023-01-29T06:46:38;9.07;;;5.17;;
8536;SDS011;4306;50.210;10.628;2023-01-29T06:49:07;9.70;;;5.23;;
8536;SDS011;4306;50.210;10.628;2023-01-29T06:51:34;7.03;;;5.10;;
8536;SDS011;4306;50.210;10.628;2023-01-29T06:54:01;9.77;;;5.43;;
8536;SDS011;4306;50.210;10.628;2023-01-29T06:56:28;14.70;;;6.00;;
8536;SDS011;4306;50.210;10.628;2023-01-29T06:58:55;10.63;;;6.00;;
8536;SDS011;4306;50.210;10.628;2023-01-29T07:01:21;12.57;;;5.53;;
8536;SDS011;4306;50.210;10.628;2023-01-29T07:03:50;14.10;;;6.90;;
8536;SDS011;4306;50.210;10.628;2023-01-29T07:06:17;15.50;;;7.07;;
8536;SDS011;4306;50.210;10.628;2023-01-29T07:08:44;8.67;;;5.63;;
8536;SDS011;4306;50.210;10.628;2023-01-29T07:11:11;9.40;;;5.73;;
8536;SDS011;4306;50.210;10.628;2023-01-29T07:13:39;9.67;;;5.70;;
8536;SDS011;4306;50.210;10.628;2023-01-29T07:16:06;9.50;;;5.97;;
8536;SDS011;4306;50.210;10.628;2023-01-29T07:18:34;8.50;;;5.70;;
8536;SDS011;4306;50.210;10.628;2023-01-29T07:21:04;10.70;;;6.00;;
8536;SDS011;4306;50.210;10.628;2023-01-29T07:23:32;10.63;;;6.07;;
8536;SDS011;4306;50.210;10.628;2023-01-29T07:25:59;12.17;;;7.00;;
8536;SDS011;4306;50.210;10.628;2023-01-29T07:28:27;13.27;;;7.20;;
8536;SDS011;4306;50.210;10.628;2023-01-29T07:30:55;14.17;;;6.87;;
8536;SDS011;4306;50.210;10.628;2023-01-29T07:33:23;9.20;;;5.77;;
8536;SDS011;4306;50.210;10.628;2023-01-29T07:35:50;10.90;;;6.53;;
8536;SDS011;4306;50.210;10.628;2023-01-29T07:38:19;10.63;;;6.73;;
8536;SDS011;4306;50.210;10.628;2023-01-29T07:40:46;11.87;;;6.70;;
8536;SDS011;4306;50.210;10.628;2023-01-29T07:43:13;14.27;;;6.80;;
8536;SDS011;4306;50.210;10.628;2023-01-29T07:45:41;11.37;;;5.50;;
8536;SDS011;4306;50.210;10.628;2023-01-29T07:48:08;11.67;;;6.80;;
8536;SDS011;4306;50.210;10.628;2023-01-29T07:50:36;9.27;;;5.77;;
8536;SDS011;4306;50.210;10.628;2023-01-29T07:53:04;15.10;;;8.67;;
8536;SDS011;4306;50.210;10.628;2023-01-29T07:55:32;10.97;;;6.70;;
8536;SDS011;4306;50.210;10.628;2023-01-29T07:58:00;10.40;;;5.63;;
8536;SDS011;4306;50.210;10.628;2023-01-29T08:00:28;9.77;;;5.87;;
8536;SDS011;4306;50.210;10.628;2023-01-29T08:03:00;9.83;;;5.63;;
8536;SDS011;4306;50.210;10.628;2023-01-29T08:05:28;10.53;;;5.47;;
8536;SDS011;4306;50.210;10.628;2023-01-29T08:07:55;9.97;;;6.23;;
8536;SDS011;4306;50.210;10.628;2023-01-29T08:10:22;11.73;;;5.67;;
8536;SDS011;4306;50.210;10.628;2023-01-29T08:12:53;9.07;;;5.47;;
8536;SDS011;4306;50.210;10.628;2023-01-29T08:15:21;9.53;;;5.43;;
8536;SDS011;4306;50.210;10.628;2023-01-29T08:17:48;10.47;;;5.60;;
8536;SDS011;4306;50.210;10.628;2023-01-29T08:20:15;8.53;;;5.60;;
8536;SDS011;4306;50.210;10.628;2023-01-29T08:22:43;9.90;;;6.17;;
8536;SDS011;4306;50.210;10.628;2023-01-29T08:25:10;13.13;;;6.70;;
8536;SDS011;4306;50.210;10.628;2023-01-29T08:27:37;13.73;;;6.60;;
8536;SDS011;4306;50.210;10.628;2023-01-29T08:30:07;11.13;;;7.77;;
8536;SDS011;4306;50.210;10.628;2023-01-29T08:32:35;11.40;;;7.10;;
8536;SDS011;4306;50.210;10.628;2023-01-29T08:35:02;16.07;;;8.80;;
8536;SDS011;4306;50.210;10.628;2023-01-29T08:37:29;10.90;;;6.73;;
8536;SDS011;4306;50.210;10.628;2023-01-29T08:39:56;11.63;;;6.90;;
8536;SDS011;4306;50.210;10.628;2023-01-29T08:42:22;12.77;;;7.43;;
8536;SDS011;4306;50.210;10.628;2023-01-29T08:44:49;45.77;;;26.43;;
8536;SDS011;4306;50.210;10.628;2023-01-29T08:47:17;23.73;;;13.83;;
8536;SDS011;4306;50.210;10.628;2023-01-29T08:49:44;13.17;;;7.40;;
8536;SDS011;4306;50.210;10.628;2023-01-29T08:52:11;12.47;;;6.53;;
8536;SDS011;4306;50.210;10.628;2023-01-29T08:54:38;10.87;;;5.93;;
8536;SDS011;4306;50.210;10.628;2023-01-29T08:57:05;10.30;;;5.87;;
8536;SDS011;4306;50.210;10.628;2023-01-29T08:59:32;10.67;;;6.10;;
8536;SDS011;4306;50.210;10.628;2023-01-29T09:01:59;11.13;;;6.10;;
8536;SDS011;4306;50.210;10.628;2023-01-29T09:04:27;10.83;;;6.30;;
8536;SDS011;4306;50.210;10.628;2023-01-29T09:06:54;12.87;;;6.80;;
8536;SDS011;4306;50.210;10.628;2023-01-29T09:09:21;11.27;;;6.20;;
8536;SDS011;4306;50.210;10.628;2023-01-29T09:11:47;12.70;;;7.10;;
8536;SDS011;4306;50.210;10.628;2023-01-29T09:14:14;11.37;;;6.40;;
8536;SDS011;4306;50.210;10.628;2023-01-29T09:16:41;10.10;;;5.87;;
8536;SDS011;4306;50.210;10.628;2023-01-29T09:19:08;9.57;;;6.00;;
8536;SDS011;4306;50.210;10.628;2023-01-29T09:21:36;8.17;;;5.60;;
8536;SDS011;4306;50.210;10.628;2023-01-29T09:24:03;10.57;;;5.80;;
8536;SDS011;4306;50.210;10.628;2023-01-29T09:26:31;11.97;;;6.20;;
8536;SDS011;4306;50.210;10.628;2023-01-29T09:28:58;9.70;;;5.83;;
8536;SDS011;4306;50.210;10.628;2023-01-29T09:31:25;11.97;;;6.40;;
8536;SDS011;4306;50.210;10.628;2023-01-29T09:33:52;11.13;;;6.00;;
8536;SDS011;4306;50.210;10.628;2023-01-29T09:36:19;13.27;;;6.30;;
8536;SDS011;4306;50.210;10.628;2023-01-29T09:38:47;12.13;;;7.23;;
8536;SDS011;4306;50.210;10.628;2023-01-29T09:41:17;8.90;;;6.33;;
8536;SDS011;4306;50.210;10.628;2023-01-29T09:43:53;10.13;;;6.70;;
8536;SDS011;4306;50.210;10.628;2023-01-29T09:46:24;9.33;;;6.30;;
8536;SDS011;4306;50.210;10.628;2023-01-29T09:48:59;12.50;;;7.23;;
8536;SDS011;4306;50.210;10.628;2023-01-29T09:51:33;12.13;;;7.20;;
8536;SDS011;4306;50.210;10.628;2023-01-29T09:54:07;19.97;;;10.40;;
8536;SDS011;4306;50.210;10.628;2023-01-29T09:56:41;11.10;;;6.30;;
8536;SDS011;4306;50.210;10.628;2023-01-29T10:01:39;16.10;;;10.57;;
8536;SDS011;4306;50.210;10.628;2023-01-29T10:04:17;16.77;;;11.40;;
8536;SDS011;4306;50.210;10.628;2023-01-29T10:07:08;14.97;;;8.73;;
8536;SDS011;4306;50.210;10.628;2023-01-29T10:10:07;11.33;;;6.90;;
8536;SDS011;4306;50.210;10.628;2023-01-29T10:12:52;12.40;;;7.20;;
8536;SDS011;4306;50.210;10.628;2023-01-29T10:15:34;12.10;;;6.63;;
8536;SDS011;4306;50.210;10.628;2023-01-29T10:18:14;11.90;;;7.27;;
8536;SDS011;4306;50.210;10.628;2023-01-29T10:21:05;10.63;;;6.67;;
8536;SDS011;4306;50.210;10.628;2023-01-29T10:23:45;11.57;;;6.57;;
8536;SDS011;4306;50.210;10.628;2023-01-29T10:26:17;12.70;;;6.73;;
8536;SDS011;4306;50.210;10.628;2023-01-29T10:28:49;12.23;;;6.37;;
8536;SDS011;4306;50.210;10.628;2023-01-29T10:31:17;10.93;;;6.50;;
8536;SDS011;4306;50.210;10.628;2023-01-29T10:33:49;12.23;;;7.00;;
8536;SDS011;4306;50.210;10.628;2023-01-29T10:36:20;10.23;;;6.07;;
8536;SDS011;4306;50.210;10.628;2023-01-29T10:38:51;11.67;;;7.07;;
8536;SDS011;4306;50.210;10.628;2023-01-29T10:41:24;14.17;;;8.50;;
8536;SDS011;4306;50.210;10.628;2023-01-29T10:44:14;16.57;;;10.57;;
8536;SDS011;4306;50.210;10.628;2023-01-29T10:46:55;11.40;;;7.03;;
8536;SDS011;4306;50.210;10.628;2023-01-29T10:49:48;9.30;;;6.20;;
8536;SDS011;4306;50.210;10.628;2023-01-29T10:52:42;8.83;;;6.10;;
8536;SDS011;4306;50.210;10.628;2023-01-29T10:55:27;15.20;;;8.27;;
8536;SDS011;4306;50.210;10.628;2023-01-29T10:58:05;15.90;;;8.60;;
8536;SDS011;4306;50.210;10.628;2023-01-29T11:00:42;9.90;;;5.90;;
8536;SDS011;4306;50.210;10.628;2023-01-29T11:03:15;12.60;;;7.10;;
8536;SDS011;4306;50.210;10.628;2023-01-29T11:05:44;10.40;;;6.23;;
8536;SDS011;4306;50.210;10.628;2023-01-29T11:08:17;11.23;;;6.47;;
8536;SDS011;4306;50.210;10.628;2023-01-29T11:10:49;9.53;;;6.13;;
8536;SDS011;4306;50.210;10.628;2023-01-29T11:13:24;11.93;;;7.03;;
8536;SDS011;4306;50.210;10.628;2023-01-29T11:15:54;9.07;;;5.53;;
8536;SDS011;4306;50.210;10.628;2023-01-29T11:18:21;10.37;;;6.57;;
8536;SDS011;4306;50.210;10.628;2023-01-29T11:20:58;10.93;;;6.50;;
8536;SDS011;4306;50.210;10.628;2023-01-29T11:23:27;11.07;;;6.70;;
8536;SDS011;4306;50.210;10.628;2023-01-29T11:25:56;11.00;;;5.70;;
8536;SDS011;4306;50.210;10.628;2023-01-29T11:28:38;9.50;;;6.40;;
8536;SDS011;4306;50.210;10.628;2023-01-29T11:31:16;8.13;;;5.30;;
8536;SDS011;4306;50.210;10.628;2023-01-29T11:33:45;9.20;;;5.83;;
8536;SDS011;4306;50.210;10.628;2023-01-29T11:36:20;8.40;;;5.10;;
8536;SDS011;4306;50.210;10.628;2023-01-29T11:39:08;14.67;;;8.00;;
8536;SDS011;4306;50.210;10.628;2023-01-29T11:41:41;13.23;;;7.43;;
8536;SDS011;4306;50.210;10.628;2023-01-29T11:44:27;11.43;;;7.07;;
8536;SDS011;4306;50.210;10.628;2023-01-29T11:46:55;17.47;;;10.37;;
8536;SDS011;4306;50.210;10.628;2023-01-29T11:49:35;17.47;;;10.20;;
8536;SDS011;4306;50.210;10.628;2023-01-29T11:52:04;17.53;;;9.83;;
8536;SDS011;4306;50.210;10.628;2023-01-29T11:54:35;13.87;;;7.43;;
8536;SDS011;4306;50.210;10.628;2023-01-29T11:57:05;10.50;;;6.93;;
8536;SDS011;4306;50.210;10.628;2023-01-29T11:59:49;12.17;;;7.83;;
8536;SDS011;4306;50.210;10.628;2023-01-29T12:05:05;14.67;;;8.80;;
8536;SDS011;4306;50.210;10.628;2023-01-29T12:07:40;12.20;;;7.30;;
8536;SDS011;4306;50.210;10.628;2023-01-29T12:13:04;11.23;;;6.73;;
8536;SDS011;4306;50.210;10.628;2023-01-29T12:15:44;12.67;;;7.93;;
8536;SDS011;4306;50.210;10.628;2023-01-29T12:18:13;12.13;;;6.83;;
8536;SDS011;4306;50.210;10.628;2023-01-29T12:20:49;13.13;;;7.10;;
8536;SDS011;4306;50.210;10.628;2023-01-29T12:23:21;10.73;;;5.67;;
8536;SDS011;4306;50.210;10.628;2023-01-29T12:25:57;10.07;;;6.00;;
8536;SDS011;4306;50.210;10.628;2023-01-29T12:28:30;13.73;;;7.80;;
8536;SDS011;4306;50.210;10.628;2023-01-29T12:31:20;12.80;;;7.00;;
8536;SDS011;4306;50.210;10.628;2023-01-29T12:33:54;8.90;;;6.10;;
8536;SDS011;4306;50.210;10.628;2023-01-29T12:36:27;11.07;;;6.30;;
8536;SDS011;4306;50.210;10.628;2023-01-29T12:38:57;9.30;;;5.80;;
8536;SDS011;4306;50.210;10.628;2023-01-29T12:41:27;12.17;;;7.30;;
8536;SDS011;4306;50.210;10.628;2023-01-29T12:43:58;12.30;;;7.50;;
8536;SDS011;4306;50.210;10.628;2023-01-29T12:46:32;11.87;;;7.67;;
8536;SDS011;4306;50.210;10.628;2023-01-29T12:49:03;11.77;;;7.03;;
8536;SDS011;4306;50.210;10.628;2023-01-29T12:51:37;10.53;;;6.37;;
8536;SDS011;4306;50.210;10.628;2023-01-29T12:54:13;11.87;;;6.50;;
8536;SDS011;4306;50.210;10.628;2023-01-29T12:56:45;9.33;;;6.17;;
8536;SDS011;4306;50.210;10.628;2023-01-29T12:59:15;11.80;;;6.93;;
8536;SDS011;4306;50.210;10.628;2023-01-29T13:01:51;9.87;;;6.20;;
8536;SDS011;4306;50.210;10.628;2023-01-29T13:04:24;9.93;;;6.40;;
8536;SDS011;4306;50.210;10.628;2023-01-29T13:07:01;9.33;;;6.20;;
8536;SDS011;4306;50.210;10.628;2023-01-29T13:09:34;11.30;;;6.23;;
8536;SDS011;4306;50.210;10.628;2023-01-29T13:12:05;9.50;;;6.20;;
8536;SDS011;4306;50.210;10.628;2023-01-29T13:14:40;9.60;;;6.30;;
8536;SDS011;4306;50.210;10.628;2023-01-29T13:17:12;11.47;;;6.43;;
8536;SDS011;4306;50.210;10.628;2023-01-29T13:19:41;10.40;;;6.43;;
8536;SDS011;4306;50.210;10.628;2023-01-29T13:22:14;10.03;;;6.43;;
8536;SDS011;4306;50.210;10.628;2023-01-29T13:24:45;11.57;;;7.40;;
8536;SDS011;4306;50.210;10.628;2023-01-29T13:27:18;12.30;;;7.33;;
8536;SDS011;4306;50.210;10.628;2023-01-29T13:29:48;13.80;;;8.20;;
8536;SDS011;4306;50.210;10.628;2023-01-29T13:32:21;12.27;;;7.80;;
8536;SDS011;4306;50.210;10.628;2023-01-29T13:34:50;12.63;;;8.40;;
8536;SDS011;4306;50.210;10.628;2023-01-29T13:37:22;13.37;;;7.67;;
8536;SDS011;4306;50.210;10.628;2023-01-29T13:39:54;12.03;;;6.87;;
8536;SDS011;4306;50.210;10.628;2023-01-29T13:42:24;12.27;;;7.63;;
8536;SDS011;4306;50.210;10.628;2023-01-29T13:45:04;12.30;;;6.37;;
8536;SDS011;4306;50.210;10.628;2023-01-29T13:47:34;14.07;;;7.33;;
8536;SDS011;4306;50.210;10.628;2023-01-29T13:50:03;13.60;;;6.60;;
8536;SDS011;4306;50.210;10.628;2023-01-29T13:52:34;18.10;;;8.07;;
8536;SDS011;4306;50.210;10.628;2023-01-29T13:55:08;12.50;;;6.53;;
8536;SDS011;4306;50.210;10.628;2023-01-29T13:57:49;11.47;;;6.27;;
8536;SDS011;4306;50.210;10.628;2023-01-29T14:06:40;16.40;;;7.87;;
8536;SDS011;4306;50.210;10.628;2023-01-29T14:09:31;16.80;;;7.20;;
8536;SDS011;4306;50.210;10.628;2023-01-29T14:11:59;14.30;;;7.10;;
8536;SDS011;4306;50.210;10.628;2023-01-29T14:17:17;18.10;;;7.70;;
8536;SDS011;4306;50.210;10.628;2023-01-29T14:19:47;15.33;;;8.60;;
8536;SDS011;4306;50.210;10.628;2023-01-29T14:22:17;15.80;;;7.67;;
8536;SDS011;4306;50.210;10.628;2023-01-29T14:24:47;15.70;;;7.03;;
8536;SDS011;4306;50.210;10.628;2023-01-29T14:27:19;15.73;;;7.80;;
8536;SDS011;4306;50.210;10.628;2023-01-29T14:29:49;14.07;;;8.20;;
8536;SDS011;4306;50.210;10.628;2023-01-29T14:32:21;13.53;;;6.80;;
8536;SDS011;4306;50.210;10.628;2023-01-29T14:34:53;16.40;;;7.43;;
8536;SDS011;4306;50.210;10.628;2023-01-29T14:37:28;14.37;;;6.90;;
8536;SDS011;4306;50.210;10.628;2023-01-29T14:39:58;15.17;;;8.33;;
8536;SDS011;4306;50.210;10.628;2023-01-29T14:42:42;15.07;;;8.07;;
8536;SDS011;4306;50.210;10.628;2023-01-29T14:45:21;28.67;;;11.33;;
8536;SDS011;4306;50.210;10.628;2023-01-29T14:47:51;19.70;;;10.73;;
8536;SDS011;4306;50.210;10.628;2023-01-29T14:53:19;12.30;;;7.43;;
8536;SDS011;4306;50.210;10.628;2023-01-29T14:55:52;13.03;;;7.73;;
8536;SDS011;4306;50.210;10.628;2023-01-29T14:58:23;13.80;;;8.00;;
8536;SDS011;4306;50.210;10.628;2023-01-29T15:00:55;13.80;;;8.23;;
8536;SDS011;4306;50.210;10.628;2023-01-29T15:03:27;11.73;;;7.10;;
8536;SDS011;4306;50.210;10.628;2023-01-29T15:06:06;14.23;;;8.63;;
8536;SDS011;4306;50.210;10.628;2023-01-29T15:08:39;11.17;;;7.47;;
8536;SDS011;4306;50.210;10.628;2023-01-29T15:11:13;10.07;;;6.47;;
8536;SDS011;4306;50.210;10.628;2023-01-29T15:16:54;12.50;;;6.67;;
8536;SDS011;4306;50.210;10.628;2023-01-29T15:19:28;13.37;;;7.67;;
8536;SDS011;4306;50.210;10.628;2023-01-29T15:22:04;12.83;;;7.87;;
8536;SDS011;4306;50.210;10.628;2023-01-29T15:24:33;23.73;;;13.77;;
8536;SDS011;4306;50.210;10.628;2023-01-29T15:27:00;27.00;;;14.87;;
8536;SDS011;4306;50.210;10.628;2023-01-29T15:29:27;21.30;;;11.43;;
8536;SDS011;4306;50.210;10.628;2023-01-29T15:31:55;28.73;;;16.23;;
8536;SDS011;4306;50.210;10.628;2023-01-29T15:34:22;23.13;;;12.17;;
8536;SDS011;4306;50.210;10.628;2023-01-29T15:36:50;13.40;;;8.37;;
8536;SDS011;4306;50.210;10.628;2023-01-29T15:39:18;13.77;;;7.87;;
8536;SDS011;4306;50.210;10.628;2023-01-29T15:41:47;13.17;;;7.80;;
8536;SDS011;4306;50.210;10.628;2023-01-29T15:44:16;20.60;;;12.57;;
8536;SDS011;4306;50.210;10.628;2023-01-29T15:46:46;12.83;;;7.33;;